sensor_id;sensor_type;location;lat;lon;timestamp;P1;durP1;ratioP1;P2;durP2;ratioP2
69951;SDS011;60406;48.408;13.392;2023-02-01T00:02:23;10.15;;;5.97;;
69951;SDS011;60406;48.408;13.392;2023-02-01T00:07:24;8.48;;;5.07;;
69951;SDS011;60406;48.408;13.392;2023-02-01T00:12:25;8.40;;;4.68;;
69951;SDS011;60406;48.408;13.392;2023-02-01T00:17:26;7.88;;;4.00;;
69951;SDS011;60406;48.408;13.392;2023-02-01T00:22:27;5.95;;;3.72;;
69951;SDS011;60406;48.408;13.392;2023-02-01T00:27:27;6.55;;;4.72;;
69951;SDS011;60406;48.408;13.392;2023-02-01T00:32:28;8.93;;;4.85;;
69951;SDS011;60406;48.408;13.392;2023-02-01T00:37:29;9.55;;;4.57;;
69951;SDS011;60406;48.408;13.392;2023-02-01T00:42:30;5.38;;;4.03;;
69951;SDS011;60406;48.408;13.392;2023-02-01T00:47:31;4.70;;;3.33;;
69951;SDS011;60406;48.408;13.392;2023-02-01T00:52:32;7.43;;;5.03;;
69951;SDS011;60406;48.408;13.392;2023-02-01T00:57:33;5.90;;;4.03;;
69951;SDS011;60406;48.408;13.392;2023-02-01T01:02:33;5.85;;;3.25;;
69951;SDS011;60406;48.408;13.392;2023-02-01T01:07:34;6.53;;;4.68;;
69951;SDS011;60406;48.408;13.392;2023-02-01T01:12:35;5.28;;;3.25;;
69951;SDS011;60406;48.408;13.392;2023-02-01T01:17:36;6.35;;;3.30;;
69951;SDS011;60406;48.408;13.392;2023-02-01T01:22:37;4.22;;;3.25;;
69951;SDS011;60406;48.408;13.392;2023-02-01T01:27:38;4.90;;;3.10;;
69951;SDS011;60406;48.408;13.392;2023-02-01T01:32:39;5.70;;;4.18;;
69951;SDS011;60406;48.408;13.392;2023-02-01T01:37:40;5.05;;;3.42;;
69951;SDS011;60406;48.408;13.392;2023-02-01T01:42:41;4.28;;;3.30;;
69951;SDS011;60406;48.408;13.392;2023-02-01T01:47:44;4.53;;;3.45;;
69951;SDS011;60406;48.408;13.392;2023-02-01T01:52:51;3.30;;;2.85;;
69951;SDS011;60406;48.408;13.392;2023-02-01T01:57:55;6.30;;;3.45;;
69951;SDS011;60406;48.408;13.392;2023-02-01T02:03:00;9.40;;;4.13;;
69951;SDS011;60406;48.408;13.392;2023-02-01T02:08:04;6.68;;;3.88;;
69951;SDS011;60406;48.408;13.392;2023-02-01T02:13:05;6.18;;;4.05;;
69951;SDS011;60406;48.408;13.392;2023-02-01T02:18:12;5.57;;;3.47;;
69951;SDS011;60406;48.408;13.392;2023-02-01T02:29:08;5.13;;;3.75;;
69951;SDS011;60406;48.408;13.392;2023-02-01T02:34:32;7.10;;;3.83;;
69951;SDS011;60406;48.408;13.392;2023-02-01T02:44:55;8.15;;;4.38;;
69951;SDS011;60406;48.408;13.392;2023-02-01T02:50:09;5.90;;;4.43;;
69951;SDS011;60406;48.408;13.392;2023-02-01T02:55:16;4.82;;;3.42;;
69951;SDS011;60406;48.408;13.392;2023-02-01T03:00:18;7.68;;;4.43;;
69951;SDS011;60406;48.408;13.392;2023-02-01T03:05:21;6.63;;;4.13;;
69951;SDS011;60406;48.408;13.392;2023-02-01T03:15:36;9.98;;;4.80;;
69951;SDS011;60406;48.408;13.392;2023-02-01T03:20:40;8.93;;;4.28;;
69951;SDS011;60406;48.408;13.392;2023-02-01T03:25:41;7.65;;;4.50;;
69951;SDS011;60406;48.408;13.392;2023-02-01T03:30:42;5.40;;;3.83;;
69951;SDS011;60406;48.408;13.392;2023-02-01T03:40:51;8.30;;;4.82;;
69951;SDS011;60406;48.408;13.392;2023-02-01T03:45:58;6.00;;;4.95;;
69951;SDS011;60406;48.408;13.392;2023-02-01T03:51:00;11.68;;;5.57;;
69951;SDS011;60406;48.408;13.392;2023-02-01T03:56:04;5.82;;;4.75;;
69951;SDS011;60406;48.408;13.392;2023-02-01T04:01:06;7.18;;;5.00;;
69951;SDS011;60406;48.408;13.392;2023-02-01T04:06:06;8.63;;;6.20;;
69951;SDS011;60406;48.408;13.392;2023-02-01T04:11:07;8.85;;;6.13;;
69951;SDS011;60406;48.408;13.392;2023-02-01T04:16:08;10.27;;;6.22;;
69951;SDS011;60406;48.408;13.392;2023-02-01T04:21:09;7.82;;;5.55;;
69951;SDS011;60406;48.408;13.392;2023-02-01T04:26:10;9.55;;;7.10;;
69951;SDS011;60406;48.408;13.392;2023-02-01T04:31:11;11.60;;;6.60;;
69951;SDS011;60406;48.408;13.392;2023-02-01T04:36:12;11.23;;;6.13;;
69951;SDS011;60406;48.408;13.392;2023-02-01T04:41:12;8.63;;;6.30;;
69951;SDS011;60406;48.408;13.392;2023-02-01T04:46:13;14.05;;;6.55;;
69951;SDS011;60406;48.408;13.392;2023-02-01T04:51:14;11.95;;;7.32;;
69951;SDS011;60406;48.408;13.392;2023-02-01T04:56:15;15.77;;;9.25;;
69951;SDS011;60406;48.408;13.392;2023-02-01T05:01:16;13.65;;;7.95;;
69951;SDS011;60406;48.408;13.392;2023-02-01T05:06:17;9.07;;;6.32;;
69951;SDS011;60406;48.408;13.392;2023-02-01T05:11:18;14.93;;;6.60;;
69951;SDS011;60406;48.408;13.392;2023-02-01T05:16:19;9.98;;;6.90;;
69951;SDS011;60406;48.408;13.392;2023-02-01T05:21:20;9.07;;;6.60;;
69951;SDS011;60406;48.408;13.392;2023-02-01T05:26:20;7.93;;;6.40;;
69951;SDS011;60406;48.408;13.392;2023-02-01T05:31:21;9.32;;;6.47;;
69951;SDS011;60406;48.408;13.392;2023-02-01T05:36:22;11.32;;;5.93;;
69951;SDS011;60406;48.408;13.392;2023-02-01T05:41:23;9.60;;;6.10;;
69951;SDS011;60406;48.408;13.392;2023-02-01T05:46:24;8.48;;;6.35;;
69951;SDS011;60406;48.408;13.392;2023-02-01T05:51:25;10.73;;;6.50;;
69951;SDS011;60406;48.408;13.392;2023-02-01T05:56:26;9.00;;;6.50;;
69951;SDS011;60406;48.408;13.392;2023-02-01T06:01:27;8.98;;;6.53;;
69951;SDS011;60406;48.408;13.392;2023-02-01T06:06:28;8.23;;;5.85;;
69951;SDS011;60406;48.408;13.392;2023-02-01T06:11:29;9.82;;;5.93;;
69951;SDS011;60406;48.408;13.392;2023-02-01T06:16:30;9.32;;;5.72;;
69951;SDS011;60406;48.408;13.392;2023-02-01T06:21:32;14.00;;;7.32;;
69951;SDS011;60406;48.408;13.392;2023-02-01T06:26:33;7.72;;;6.00;;
69951;SDS011;60406;48.408;13.392;2023-02-01T06:31:33;8.23;;;5.72;;
69951;SDS011;60406;48.408;13.392;2023-02-01T06:36:34;9.00;;;6.28;;
69951;SDS011;60406;48.408;13.392;2023-02-01T06:41:35;9.25;;;6.05;;
69951;SDS011;60406;48.408;13.392;2023-02-01T06:46:36;11.88;;;5.95;;
69951;SDS011;60406;48.408;13.392;2023-02-01T06:51:37;11.30;;;5.15;;
69951;SDS011;60406;48.408;13.392;2023-02-01T06:56:38;8.85;;;6.55;;
69951;SDS011;60406;48.408;13.392;2023-02-01T07:01:39;9.02;;;5.05;;
69951;SDS011;60406;48.408;13.392;2023-02-01T07:06:40;5.70;;;5.00;;
69951;SDS011;60406;48.408;13.392;2023-02-01T07:11:41;7.53;;;5.65;;
69951;SDS011;60406;48.408;13.392;2023-02-01T07:16:41;7.00;;;4.70;;
69951;SDS011;60406;48.408;13.392;2023-02-01T07:21:42;4.50;;;3.70;;
69951;SDS011;60406;48.408;13.392;2023-02-01T07:26:43;5.75;;;4.40;;
69951;SDS011;60406;48.408;13.392;2023-02-01T07:31:44;5.82;;;3.97;;
69951;SDS011;60406;48.408;13.392;2023-02-01T07:36:45;7.93;;;4.00;;
69951;SDS011;60406;48.408;13.392;2023-02-01T07:41:46;7.10;;;3.70;;
69951;SDS011;60406;48.408;13.392;2023-02-01T07:46:47;5.07;;;3.42;;
69951;SDS011;60406;48.408;13.392;2023-02-01T07:51:48;4.85;;;2.95;;
69951;SDS011;60406;48.408;13.392;2023-02-01T07:56:48;5.32;;;3.95;;
69951;SDS011;60406;48.408;13.392;2023-02-01T08:01:49;2.53;;;2.03;;
69951;SDS011;60406;48.408;13.392;2023-02-01T08:06:50;8.57;;;3.65;;
69951;SDS011;60406;48.408;13.392;2023-02-01T08:11:51;6.25;;;3.70;;
69951;SDS011;60406;48.408;13.392;2023-02-01T08:16:52;6.35;;;3.22;;
69951;SDS011;60406;48.408;13.392;2023-02-01T08:21:53;4.25;;;3.28;;
69951;SDS011;60406;48.408;13.392;2023-02-01T08:26:54;5.53;;;3.70;;
69951;SDS011;60406;48.408;13.392;2023-02-01T08:31:55;4.20;;;2.97;;
69951;SDS011;60406;48.408;13.392;2023-02-01T08:36:55;5.85;;;5.13;;
69951;SDS011;60406;48.408;13.392;2023-02-01T08:41:56;7.00;;;3.92;;
69951;SDS011;60406;48.408;13.392;2023-02-01T08:46:57;5.05;;;3.10;;
69951;SDS011;60406;48.408;13.392;2023-02-01T08:51:58;8.60;;;4.90;;
69951;SDS011;60406;48.408;13.392;2023-02-01T08:56:59;4.65;;;2.67;;
69951;SDS011;60406;48.408;13.392;2023-02-01T09:02:00;5.78;;;2.88;;
69951;SDS011;60406;48.408;13.392;2023-02-01T09:07:01;4.15;;;3.53;;
69951;SDS011;60406;48.408;13.392;2023-02-01T09:12:02;4.40;;;3.45;;
69951;SDS011;60406;48.408;13.392;2023-02-01T09:17:03;3.55;;;2.75;;
69951;SDS011;60406;48.408;13.392;2023-02-01T09:22:04;6.35;;;3.63;;
69951;SDS011;60406;48.408;13.392;2023-02-01T09:27:05;5.43;;;2.95;;
69951;SDS011;60406;48.408;13.392;2023-02-01T09:32:06;4.93;;;3.08;;
69951;SDS011;60406;48.408;13.392;2023-02-01T09:37:06;6.65;;;2.92;;
69951;SDS011;60406;48.408;13.392;2023-02-01T09:42:12;7.60;;;3.75;;
69951;SDS011;60406;48.408;13.392;2023-02-01T09:47:18;4.50;;;3.28;;
69951;SDS011;60406;48.408;13.392;2023-02-01T09:52:23;6.72;;;4.10;;
69951;SDS011;60406;48.408;13.392;2023-02-01T09:57:33;9.20;;;5.10;;
69951;SDS011;60406;48.408;13.392;2023-02-01T10:02:41;4.20;;;3.05;;
69951;SDS011;60406;48.408;13.392;2023-02-01T10:07:46;9.38;;;7.35;;
69951;SDS011;60406;48.408;13.392;2023-02-01T10:13:30;10.48;;;7.95;;
69951;SDS011;60406;48.408;13.392;2023-02-01T10:28:50;6.43;;;4.27;;
69951;SDS011;60406;48.408;13.392;2023-02-01T10:34:14;9.20;;;5.00;;
69951;SDS011;60406;48.408;13.392;2023-02-01T10:39:18;9.38;;;5.30;;
69951;SDS011;60406;48.408;13.392;2023-02-01T10:44:20;11.45;;;7.80;;
69951;SDS011;60406;48.408;13.392;2023-02-01T10:49:26;7.32;;;5.55;;
69951;SDS011;60406;48.408;13.392;2023-02-01T10:54:34;6.90;;;5.00;;
69951;SDS011;60406;48.408;13.392;2023-02-01T10:59:36;5.50;;;3.53;;
69951;SDS011;60406;48.408;13.392;2023-02-01T11:04:37;7.18;;;3.35;;
69951;SDS011;60406;48.408;13.392;2023-02-01T11:09:39;4.85;;;2.63;;
69951;SDS011;60406;48.408;13.392;2023-02-01T11:14:40;9.60;;;5.15;;
69951;SDS011;60406;48.408;13.392;2023-02-01T11:19:44;7.40;;;5.57;;
69951;SDS011;60406;48.408;13.392;2023-02-01T11:24:46;4.30;;;3.05;;
69951;SDS011;60406;48.408;13.392;2023-02-01T11:29:47;3.58;;;2.38;;
69951;SDS011;60406;48.408;13.392;2023-02-01T11:35:01;5.22;;;3.22;;
69951;SDS011;60406;48.408;13.392;2023-02-01T11:45:19;7.88;;;4.57;;
69951;SDS011;60406;48.408;13.392;2023-02-01T11:50:34;6.55;;;3.60;;
69951;SDS011;60406;48.408;13.392;2023-02-01T12:06:28;13.40;;;3.38;;
69951;SDS011;60406;48.408;13.392;2023-02-01T12:16:57;3.17;;;2.30;;
69951;SDS011;60406;48.408;13.392;2023-02-01T12:22:14;4.28;;;2.05;;
69951;SDS011;60406;48.408;13.392;2023-02-01T12:38:15;14.18;;;8.23;;
69951;SDS011;60406;48.408;13.392;2023-02-01T12:43:38;15.07;;;8.53;;
69951;SDS011;60406;48.408;13.392;2023-02-01T12:48:55;13.88;;;8.65;;
69951;SDS011;60406;48.408;13.392;2023-02-01T12:59:50;10.50;;;7.13;;
69951;SDS011;60406;48.408;13.392;2023-02-01T13:05:15;10.68;;;5.50;;
69951;SDS011;60406;48.408;13.392;2023-02-01T13:10:40;8.90;;;5.57;;
69951;SDS011;60406;48.408;13.392;2023-02-01T13:15:49;8.70;;;5.55;;
69951;SDS011;60406;48.408;13.392;2023-02-01T13:21:14;9.95;;;5.50;;
69951;SDS011;60406;48.408;13.392;2023-02-01T13:26:17;8.60;;;6.07;;
69951;SDS011;60406;48.408;13.392;2023-02-01T13:41:55;11.02;;;5.15;;
69951;SDS011;60406;48.408;13.392;2023-02-01T13:46:58;8.30;;;4.78;;
69951;SDS011;60406;48.408;13.392;2023-02-01T13:52:01;9.87;;;7.67;;
69951;SDS011;60406;48.408;13.392;2023-02-01T13:57:03;8.57;;;5.10;;
69951;SDS011;60406;48.408;13.392;2023-02-01T14:13:04;6.95;;;3.05;;
69951;SDS011;60406;48.408;13.392;2023-02-01T14:23:46;8.20;;;4.18;;
69951;SDS011;60406;48.408;13.392;2023-02-01T14:28:52;7.22;;;3.55;;
69951;SDS011;60406;48.408;13.392;2023-02-01T14:33:57;9.45;;;3.60;;
69951;SDS011;60406;48.408;13.392;2023-02-01T14:49:02;6.93;;;3.13;;
69951;SDS011;60406;48.408;13.392;2023-02-01T14:54:03;8.27;;;3.38;;
69951;SDS011;60406;48.408;13.392;2023-02-01T14:59:08;8.88;;;3.75;;
69951;SDS011;60406;48.408;13.392;2023-02-01T15:04:13;8.00;;;2.47;;
69951;SDS011;60406;48.408;13.392;2023-02-01T15:14:26;6.28;;;3.13;;
69951;SDS011;60406;48.408;13.392;2023-02-01T15:19:28;9.57;;;4.28;;
69951;SDS011;60406;48.408;13.392;2023-02-01T15:24:30;15.07;;;4.45;;
69951;SDS011;60406;48.408;13.392;2023-02-01T15:29:31;5.70;;;3.10;;
69951;SDS011;60406;48.408;13.392;2023-02-01T15:34:48;10.82;;;3.67;;
69951;SDS011;60406;48.408;13.392;2023-02-01T15:45:27;6.47;;;2.53;;
69951;SDS011;60406;48.408;13.392;2023-02-01T15:50:30;7.78;;;3.00;;
69951;SDS011;60406;48.408;13.392;2023-02-01T15:55:38;13.02;;;3.72;;
69951;SDS011;60406;48.408;13.392;2023-02-01T16:00:42;12.25;;;3.80;;
69951;SDS011;60406;48.408;13.392;2023-02-01T16:05:53;7.93;;;3.90;;
69951;SDS011;60406;48.408;13.392;2023-02-01T16:11:00;12.40;;;3.38;;
69951;SDS011;60406;48.408;13.392;2023-02-01T16:16:11;11.40;;;5.28;;
69951;SDS011;60406;48.408;13.392;2023-02-01T16:21:11;9.98;;;3.33;;
69951;SDS011;60406;48.408;13.392;2023-02-01T16:26:12;10.32;;;3.85;;
69951;SDS011;60406;48.408;13.392;2023-02-01T16:31:14;8.15;;;3.40;;
69951;SDS011;60406;48.408;13.392;2023-02-01T16:36:16;6.25;;;3.28;;
69951;SDS011;60406;48.408;13.392;2023-02-01T16:41:18;6.90;;;2.53;;
69951;SDS011;60406;48.408;13.392;2023-02-01T16:46:21;6.72;;;2.80;;
69951;SDS011;60406;48.408;13.392;2023-02-01T16:51:24;9.30;;;3.35;;
69951;SDS011;60406;48.408;13.392;2023-02-01T16:56:30;8.43;;;3.30;;
69951;SDS011;60406;48.408;13.392;2023-02-01T17:01:31;5.65;;;2.53;;
69951;SDS011;60406;48.408;13.392;2023-02-01T17:06:35;28.00;;;12.57;;
69951;SDS011;60406;48.408;13.392;2023-02-01T17:11:36;9.25;;;6.72;;
69951;SDS011;60406;48.408;13.392;2023-02-01T17:16:37;4.93;;;3.97;;
69951;SDS011;60406;48.408;13.392;2023-02-01T17:21:44;7.82;;;2.90;;
69951;SDS011;60406;48.408;13.392;2023-02-01T17:26:47;10.07;;;2.63;;
69951;SDS011;60406;48.408;13.392;2023-02-01T17:31:49;5.85;;;2.40;;
69951;SDS011;60406;48.408;13.392;2023-02-01T17:36:53;7.07;;;2.70;;
69951;SDS011;60406;48.408;13.392;2023-02-01T17:41:54;10.75;;;2.58;;
69951;SDS011;60406;48.408;13.392;2023-02-01T17:46:54;8.07;;;2.05;;
69951;SDS011;60406;48.408;13.392;2023-02-01T17:51:56;9.85;;;2.80;;
69951;SDS011;60406;48.408;13.392;2023-02-01T17:56:57;7.90;;;3.22;;
69951;SDS011;60406;48.408;13.392;2023-02-01T18:01:58;8.65;;;2.67;;
69951;SDS011;60406;48.408;13.392;2023-02-01T18:06:58;7.93;;;2.58;;
69951;SDS011;60406;48.408;13.392;2023-02-01T18:12:00;4.82;;;2.38;;
69951;SDS011;60406;48.408;13.392;2023-02-01T18:17:02;6.90;;;2.22;;
69951;SDS011;60406;48.408;13.392;2023-02-01T18:22:03;4.70;;;2.05;;
69951;SDS011;60406;48.408;13.392;2023-02-01T18:27:04;9.00;;;3.08;;
69951;SDS011;60406;48.408;13.392;2023-02-01T18:32:04;11.40;;;3.55;;
69951;SDS011;60406;48.408;13.392;2023-02-01T18:37:05;10.43;;;2.67;;
69951;SDS011;60406;48.408;13.392;2023-02-01T18:42:07;4.95;;;1.92;;
69951;SDS011;60406;48.408;13.392;2023-02-01T18:47:08;6.03;;;2.28;;
69951;SDS011;60406;48.408;13.392;2023-02-01T18:52:10;7.03;;;3.42;;
69951;SDS011;60406;48.408;13.392;2023-02-01T18:57:11;8.60;;;2.60;;
69951;SDS011;60406;48.408;13.392;2023-02-01T19:02:12;7.07;;;2.78;;
69951;SDS011;60406;48.408;13.392;2023-02-01T19:07:13;10.02;;;2.20;;
69951;SDS011;60406;48.408;13.392;2023-02-01T19:12:14;4.38;;;1.77;;
69951;SDS011;60406;48.408;13.392;2023-02-01T19:17:15;10.02;;;2.63;;
69951;SDS011;60406;48.408;13.392;2023-02-01T19:22:16;6.50;;;2.30;;
69951;SDS011;60406;48.408;13.392;2023-02-01T19:27:17;6.82;;;2.17;;
69951;SDS011;60406;48.408;13.392;2023-02-01T19:32:18;9.82;;;2.22;;
69951;SDS011;60406;48.408;13.392;2023-02-01T19:37:19;4.40;;;1.92;;
69951;SDS011;60406;48.408;13.392;2023-02-01T19:42:20;9.68;;;2.97;;
69951;SDS011;60406;48.408;13.392;2023-02-01T19:47:21;8.65;;;2.53;;
69951;SDS011;60406;48.408;13.392;2023-02-01T19:52:22;7.97;;;2.50;;
69951;SDS011;60406;48.408;13.392;2023-02-01T19:57:23;13.63;;;3.30;;
69951;SDS011;60406;48.408;13.392;2023-02-01T20:02:23;5.43;;;2.72;;
69951;SDS011;60406;48.408;13.392;2023-02-01T20:07:24;7.10;;;2.45;;
69951;SDS011;60406;48.408;13.392;2023-02-01T20:12:25;7.45;;;2.58;;
69951;SDS011;60406;48.408;13.392;2023-02-01T20:17:26;11.27;;;3.55;;
69951;SDS011;60406;48.408;13.392;2023-02-01T20:22:27;10.15;;;3.30;;
69951;SDS011;60406;48.408;13.392;2023-02-01T20:27:28;6.07;;;2.47;;
69951;SDS011;60406;48.408;13.392;2023-02-01T20:32:29;12.32;;;3.25;;
69951;SDS011;60406;48.408;13.392;2023-02-01T20:37:29;5.50;;;3.10;;
69951;SDS011;60406;48.408;13.392;2023-02-01T20:42:30;10.25;;;2.35;;
69951;SDS011;60406;48.408;13.392;2023-02-01T20:47:31;10.75;;;2.42;;
69951;SDS011;60406;48.408;13.392;2023-02-01T20:52:32;4.05;;;1.52;;
69951;SDS011;60406;48.408;13.392;2023-02-01T20:57:33;8.43;;;1.80;;
69951;SDS011;60406;48.408;13.392;2023-02-01T21:02:34;9.00;;;2.20;;
69951;SDS011;60406;48.408;13.392;2023-02-01T21:07:36;8.20;;;2.60;;
69951;SDS011;60406;48.408;13.392;2023-02-01T21:12:37;4.47;;;1.60;;
69951;SDS011;60406;48.408;13.392;2023-02-01T21:17:38;5.65;;;1.70;;
69951;SDS011;60406;48.408;13.392;2023-02-01T21:22:39;15.55;;;2.50;;
69951;SDS011;60406;48.408;13.392;2023-02-01T21:27:39;7.63;;;2.00;;
69951;SDS011;60406;48.408;13.392;2023-02-01T21:32:40;17.00;;;4.15;;
69951;SDS011;60406;48.408;13.392;2023-02-01T21:37:41;8.00;;;1.98;;
69951;SDS011;60406;48.408;13.392;2023-02-01T21:42:42;13.35;;;2.72;;
69951;SDS011;60406;48.408;13.392;2023-02-01T21:47:43;10.45;;;3.38;;
69951;SDS011;60406;48.408;13.392;2023-02-01T21:52:44;10.90;;;3.20;;
69951;SDS011;60406;48.408;13.392;2023-02-01T21:57:45;8.00;;;2.05;;
69951;SDS011;60406;48.408;13.392;2023-02-01T22:02:46;10.68;;;2.40;;
69951;SDS011;60406;48.408;13.392;2023-02-01T22:07:47;9.48;;;1.75;;
69951;SDS011;60406;48.408;13.392;2023-02-01T22:12:48;7.60;;;2.15;;
69951;SDS011;60406;48.408;13.392;2023-02-01T22:17:49;8.73;;;2.33;;
69951;SDS011;60406;48.408;13.392;2023-02-01T22:22:49;7.88;;;2.00;;
69951;SDS011;60406;48.408;13.392;2023-02-01T22:27:50;7.18;;;2.13;;
69951;SDS011;60406;48.408;13.392;2023-02-01T22:32:51;8.32;;;3.03;;
69951;SDS011;60406;48.408;13.392;2023-02-01T22:37:52;3.63;;;1.55;;
69951;SDS011;60406;48.408;13.392;2023-02-01T22:42:53;9.60;;;2.92;;
69951;SDS011;60406;48.408;13.392;2023-02-01T22:47:54;5.25;;;1.98;;
69951;SDS011;60406;48.408;13.392;2023-02-01T22:52:55;14.13;;;3.00;;
69951;SDS011;60406;48.408;13.392;2023-02-01T22:57:55;7.75;;;2.22;;
69951;SDS011;60406;48.408;13.392;2023-02-01T23:02:56;3.22;;;1.75;;
69951;SDS011;60406;48.408;13.392;2023-02-01T23:07:57;5.93;;;2.45;;
69951;SDS011;60406;48.408;13.392;2023-02-01T23:12:58;7.40;;;2.80;;
69951;SDS011;60406;48.408;13.392;2023-02-01T23:17:59;5.18;;;2.40;;
69951;SDS011;60406;48.408;13.392;2023-02-01T23:23:00;7.53;;;2.30;;
69951;SDS011;60406;48.408;13.392;2023-02-01T23:28:01;5.53;;;1.90;;
69951;SDS011;60406;48.408;13.392;2023-02-01T23:33:02;9.23;;;1.98;;
69951;SDS011;60406;48.408;13.392;2023-02-01T23:38:02;15.13;;;2.38;;
69951;SDS011;60406;48.408;13.392;2023-02-01T23:43:03;7.78;;;2.53;;
69951;SDS011;60406;48.408;13.392;2023-02-01T23:48:04;8.60;;;2.25;;
69951;SDS011;60406;48.408;13.392;2023-02-01T23:53:05;9.52;;;3.38;;
69951;SDS011;60406;48.408;13.392;2023-02-01T23:58:06;3.72;;;1.67;;
